sensor_id;sensor_type;location;lat;lon;timestamp;P1;durP1;ratioP1;P2;durP2;ratioP2
13244;SDS011;6689;53.400;12.486;2023-04-09T00:02:06;105.82;;;31.13;;
13244;SDS011;6689;53.400;12.486;2023-04-09T00:04:36;103.68;;;32.28;;
13244;SDS011;6689;53.400;12.486;2023-04-09T00:07:04;125.32;;;36.50;;
13244;SDS011;6689;53.400;12.486;2023-04-09T00:09:31;137.98;;;38.28;;
13244;SDS011;6689;53.400;12.486;2023-04-09T00:11:58;139.65;;;41.42;;
13244;SDS011;6689;53.400;12.486;2023-04-09T00:14:26;111.05;;;35.08;;
13244;SDS011;6689;53.400;12.486;2023-04-09T00:16:53;112.13;;;34.65;;
13244;SDS011;6689;53.400;12.486;2023-04-09T00:19:21;119.35;;;37.83;;
13244;SDS011;6689;53.400;12.486;2023-04-09T00:21:49;97.18;;;34.38;;
13244;SDS011;6689;53.400;12.486;2023-04-09T00:24:17;103.13;;;35.97;;
13244;SDS011;6689;53.400;12.486;2023-04-09T00:26:45;111.63;;;35.17;;
13244;SDS011;6689;53.400;12.486;2023-04-09T00:29:13;169.35;;;37.47;;
13244;SDS011;6689;53.400;12.486;2023-04-09T00:31:42;168.43;;;42.38;;
13244;SDS011;6689;53.400;12.486;2023-04-09T00:34:12;180.90;;;43.88;;
13244;SDS011;6689;53.400;12.486;2023-04-09T00:36:39;211.25;;;45.25;;
13244;SDS011;6689;53.400;12.486;2023-04-09T00:39:08;128.13;;;37.50;;
13244;SDS011;6689;53.400;12.486;2023-04-09T00:41:35;154.27;;;38.65;;
13244;SDS011;6689;53.400;12.486;2023-04-09T00:44:02;114.95;;;34.47;;
13244;SDS011;6689;53.400;12.486;2023-04-09T00:46:30;159.88;;;38.10;;
13244;SDS011;6689;53.400;12.486;2023-04-09T00:48:58;173.05;;;39.47;;
13244;SDS011;6689;53.400;12.486;2023-04-09T00:51:25;130.82;;;38.17;;
13244;SDS011;6689;53.400;12.486;2023-04-09T00:53:53;151.27;;;43.60;;
13244;SDS011;6689;53.400;12.486;2023-04-09T00:56:22;121.55;;;36.22;;
13244;SDS011;6689;53.400;12.486;2023-04-09T00:58:50;109.60;;;35.90;;
13244;SDS011;6689;53.400;12.486;2023-04-09T01:01:18;119.28;;;36.08;;
13244;SDS011;6689;53.400;12.486;2023-04-09T01:03:45;86.03;;;34.15;;
13244;SDS011;6689;53.400;12.486;2023-04-09T01:06:14;84.03;;;33.50;;
13244;SDS011;6689;53.400;12.486;2023-04-09T01:08:50;82.20;;;33.53;;
13244;SDS011;6689;53.400;12.486;2023-04-09T01:11:30;75.90;;;31.10;;
13244;SDS011;6689;53.400;12.486;2023-04-09T01:14:04;75.72;;;31.35;;
13244;SDS011;6689;53.400;12.486;2023-04-09T01:16:36;75.70;;;31.52;;
13244;SDS011;6689;53.400;12.486;2023-04-09T01:19:15;105.38;;;33.28;;
13244;SDS011;6689;53.400;12.486;2023-04-09T01:21:57;97.38;;;31.95;;
13244;SDS011;6689;53.400;12.486;2023-04-09T01:24:28;121.65;;;34.97;;
13244;SDS011;6689;53.400;12.486;2023-04-09T01:27:04;102.60;;;32.63;;
13244;SDS011;6689;53.400;12.486;2023-04-09T01:29:35;184.35;;;44.88;;
13244;SDS011;6689;53.400;12.486;2023-04-09T01:32:05;114.22;;;32.72;;
13244;SDS011;6689;53.400;12.486;2023-04-09T01:34:33;115.25;;;33.35;;
13244;SDS011;6689;53.400;12.486;2023-04-09T01:37:02;102.25;;;30.17;;
13244;SDS011;6689;53.400;12.486;2023-04-09T01:39:30;141.90;;;33.28;;
13244;SDS011;6689;53.400;12.486;2023-04-09T01:41:58;101.45;;;32.78;;
13244;SDS011;6689;53.400;12.486;2023-04-09T01:44:28;162.80;;;37.55;;
13244;SDS011;6689;53.400;12.486;2023-04-09T01:47:00;105.15;;;30.02;;
13244;SDS011;6689;53.400;12.486;2023-04-09T01:49:27;145.82;;;36.90;;
13244;SDS011;6689;53.400;12.486;2023-04-09T01:51:55;97.55;;;29.85;;
13244;SDS011;6689;53.400;12.486;2023-04-09T01:54:23;92.43;;;29.80;;
13244;SDS011;6689;53.400;12.486;2023-04-09T01:56:51;102.32;;;31.40;;
13244;SDS011;6689;53.400;12.486;2023-04-09T01:59:18;105.57;;;30.55;;
13244;SDS011;6689;53.400;12.486;2023-04-09T02:01:46;139.30;;;34.00;;
13244;SDS011;6689;53.400;12.486;2023-04-09T02:04:22;106.35;;;32.65;;
13244;SDS011;6689;53.400;12.486;2023-04-09T02:06:56;170.90;;;42.58;;
13244;SDS011;6689;53.400;12.486;2023-04-09T02:09:28;147.90;;;35.03;;
13244;SDS011;6689;53.400;12.486;2023-04-09T02:11:57;127.47;;;33.55;;
13244;SDS011;6689;53.400;12.486;2023-04-09T02:14:28;123.63;;;36.17;;
13244;SDS011;6689;53.400;12.486;2023-04-09T02:16:59;180.20;;;39.17;;
13244;SDS011;6689;53.400;12.486;2023-04-09T02:19:38;144.75;;;36.35;;
13244;SDS011;6689;53.400;12.486;2023-04-09T02:22:06;142.38;;;35.42;;
13244;SDS011;6689;53.400;12.486;2023-04-09T02:24:33;109.70;;;35.22;;
13244;SDS011;6689;53.400;12.486;2023-04-09T02:27:00;143.38;;;36.85;;
13244;SDS011;6689;53.400;12.486;2023-04-09T02:29:30;140.13;;;34.97;;
13244;SDS011;6689;53.400;12.486;2023-04-09T02:31:57;81.88;;;30.30;;
13244;SDS011;6689;53.400;12.486;2023-04-09T02:34:25;128.60;;;33.38;;
13244;SDS011;6689;53.400;12.486;2023-04-09T02:36:54;106.60;;;36.38;;
13244;SDS011;6689;53.400;12.486;2023-04-09T02:39:21;131.27;;;37.25;;
13244;SDS011;6689;53.400;12.486;2023-04-09T02:41:49;130.23;;;34.78;;
13244;SDS011;6689;53.400;12.486;2023-04-09T02:44:16;237.35;;;47.30;;
13244;SDS011;6689;53.400;12.486;2023-04-09T02:46:45;102.50;;;32.83;;
13244;SDS011;6689;53.400;12.486;2023-04-09T02:49:13;78.70;;;30.20;;
13244;SDS011;6689;53.400;12.486;2023-04-09T02:51:42;84.05;;;36.65;;
13244;SDS011;6689;53.400;12.486;2023-04-09T02:54:11;117.28;;;34.05;;
13244;SDS011;6689;53.400;12.486;2023-04-09T02:56:38;79.78;;;30.13;;
13244;SDS011;6689;53.400;12.486;2023-04-09T02:59:05;78.55;;;30.73;;
13244;SDS011;6689;53.400;12.486;2023-04-09T03:01:32;52.58;;;25.38;;
13244;SDS011;6689;53.400;12.486;2023-04-09T03:04:00;54.38;;;25.95;;
13244;SDS011;6689;53.400;12.486;2023-04-09T03:06:27;67.57;;;27.80;;
13244;SDS011;6689;53.400;12.486;2023-04-09T03:11:45;54.50;;;25.92;;
13244;SDS011;6689;53.400;12.486;2023-04-09T03:14:12;61.20;;;26.88;;
13244;SDS011;6689;53.400;12.486;2023-04-09T03:16:39;54.50;;;24.88;;
13244;SDS011;6689;53.400;12.486;2023-04-09T03:19:07;62.17;;;25.67;;
13244;SDS011;6689;53.400;12.486;2023-04-09T03:21:34;60.85;;;26.70;;
13244;SDS011;6689;53.400;12.486;2023-04-09T03:24:01;67.57;;;28.23;;
13244;SDS011;6689;53.400;12.486;2023-04-09T03:26:30;80.13;;;26.65;;
13244;SDS011;6689;53.400;12.486;2023-04-09T03:29:00;95.30;;;27.73;;
13244;SDS011;6689;53.400;12.486;2023-04-09T03:31:27;74.20;;;26.45;;
13244;SDS011;6689;53.400;12.486;2023-04-09T03:33:56;73.50;;;26.65;;
13244;SDS011;6689;53.400;12.486;2023-04-09T03:36:24;56.67;;;25.63;;
13244;SDS011;6689;53.400;12.486;2023-04-09T03:38:52;91.32;;;30.30;;
13244;SDS011;6689;53.400;12.486;2023-04-09T03:41:19;97.32;;;29.02;;
13244;SDS011;6689;53.400;12.486;2023-04-09T03:43:48;37.53;;;21.27;;
13244;SDS011;6689;53.400;12.486;2023-04-09T03:46:16;41.35;;;22.23;;
13244;SDS011;6689;53.400;12.486;2023-04-09T03:48:44;81.13;;;29.35;;
13244;SDS011;6689;53.400;12.486;2023-04-09T03:51:11;60.00;;;23.08;;
13244;SDS011;6689;53.400;12.486;2023-04-09T03:53:38;59.63;;;25.55;;
13244;SDS011;6689;53.400;12.486;2023-04-09T03:56:06;36.78;;;22.48;;
13244;SDS011;6689;53.400;12.486;2023-04-09T03:58:34;35.03;;;20.55;;
13244;SDS011;6689;53.400;12.486;2023-04-09T04:01:03;58.90;;;26.75;;
13244;SDS011;6689;53.400;12.486;2023-04-09T04:03:30;48.85;;;22.63;;
13244;SDS011;6689;53.400;12.486;2023-04-09T04:05:59;66.25;;;25.70;;
13244;SDS011;6689;53.400;12.486;2023-04-09T04:08:28;36.97;;;21.55;;
13244;SDS011;6689;53.400;12.486;2023-04-09T04:10:57;40.30;;;21.90;;
13244;SDS011;6689;53.400;12.486;2023-04-09T04:13:29;53.03;;;25.67;;
13244;SDS011;6689;53.400;12.486;2023-04-09T04:15:56;37.45;;;22.58;;
13244;SDS011;6689;53.400;12.486;2023-04-09T04:18:25;40.15;;;22.00;;
13244;SDS011;6689;53.400;12.486;2023-04-09T04:20:52;36.58;;;22.52;;
13244;SDS011;6689;53.400;12.486;2023-04-09T04:23:19;40.10;;;23.77;;
13244;SDS011;6689;53.400;12.486;2023-04-09T04:25:47;39.42;;;22.52;;
13244;SDS011;6689;53.400;12.486;2023-04-09T04:28:14;31.98;;;20.50;;
13244;SDS011;6689;53.400;12.486;2023-04-09T04:30:41;36.28;;;22.10;;
13244;SDS011;6689;53.400;12.486;2023-04-09T04:33:11;49.60;;;24.38;;
13244;SDS011;6689;53.400;12.486;2023-04-09T04:35:40;48.05;;;25.83;;
13244;SDS011;6689;53.400;12.486;2023-04-09T04:38:08;51.22;;;25.85;;
13244;SDS011;6689;53.400;12.486;2023-04-09T04:40:37;54.35;;;24.17;;
13244;SDS011;6689;53.400;12.486;2023-04-09T04:43:06;41.83;;;21.50;;
13244;SDS011;6689;53.400;12.486;2023-04-09T04:45:34;35.95;;;21.50;;
13244;SDS011;6689;53.400;12.486;2023-04-09T04:48:02;39.10;;;19.45;;
13244;SDS011;6689;53.400;12.486;2023-04-09T04:50:30;38.53;;;20.23;;
13244;SDS011;6689;53.400;12.486;2023-04-09T04:52:59;32.58;;;19.52;;
13244;SDS011;6689;53.400;12.486;2023-04-09T04:55:26;41.85;;;21.55;;
13244;SDS011;6689;53.400;12.486;2023-04-09T04:57:54;38.53;;;20.58;;
13244;SDS011;6689;53.400;12.486;2023-04-09T05:00:21;35.05;;;18.60;;
13244;SDS011;6689;53.400;12.486;2023-04-09T05:02:53;31.58;;;17.83;;
13244;SDS011;6689;53.400;12.486;2023-04-09T05:05:20;31.95;;;17.77;;
13244;SDS011;6689;53.400;12.486;2023-04-09T05:07:48;37.40;;;19.45;;
13244;SDS011;6689;53.400;12.486;2023-04-09T05:10:19;42.03;;;20.00;;
13244;SDS011;6689;53.400;12.486;2023-04-09T05:12:46;46.08;;;20.70;;
13244;SDS011;6689;53.400;12.486;2023-04-09T05:15:13;48.63;;;21.63;;
13244;SDS011;6689;53.400;12.486;2023-04-09T05:17:41;42.33;;;21.30;;
13244;SDS011;6689;53.400;12.486;2023-04-09T05:20:12;36.92;;;19.33;;
13244;SDS011;6689;53.400;12.486;2023-04-09T05:22:40;40.15;;;20.23;;
13244;SDS011;6689;53.400;12.486;2023-04-09T05:25:08;43.58;;;20.35;;
13244;SDS011;6689;53.400;12.486;2023-04-09T05:27:37;57.97;;;22.50;;
13244;SDS011;6689;53.400;12.486;2023-04-09T05:30:04;45.40;;;20.73;;
13244;SDS011;6689;53.400;12.486;2023-04-09T05:32:35;38.88;;;20.00;;
13244;SDS011;6689;53.400;12.486;2023-04-09T05:35:02;52.10;;;20.55;;
13244;SDS011;6689;53.400;12.486;2023-04-09T05:37:30;33.88;;;19.05;;
13244;SDS011;6689;53.400;12.486;2023-04-09T05:39:57;31.17;;;17.50;;
13244;SDS011;6689;53.400;12.486;2023-04-09T05:42:24;31.33;;;16.42;;
13244;SDS011;6689;53.400;12.486;2023-04-09T05:44:53;25.05;;;15.35;;
13244;SDS011;6689;53.400;12.486;2023-04-09T05:47:24;26.73;;;16.05;;
13244;SDS011;6689;53.400;12.486;2023-04-09T05:49:53;30.00;;;16.63;;
13244;SDS011;6689;53.400;12.486;2023-04-09T05:52:22;26.50;;;15.70;;
13244;SDS011;6689;53.400;12.486;2023-04-09T05:54:51;26.88;;;15.90;;
13244;SDS011;6689;53.400;12.486;2023-04-09T05:57:19;23.17;;;14.75;;
13244;SDS011;6689;53.400;12.486;2023-04-09T05:59:46;25.25;;;15.00;;
13244;SDS011;6689;53.400;12.486;2023-04-09T06:02:15;27.92;;;16.40;;
13244;SDS011;6689;53.400;12.486;2023-04-09T06:04:42;29.50;;;14.70;;
13244;SDS011;6689;53.400;12.486;2023-04-09T06:07:10;26.63;;;14.90;;
13244;SDS011;6689;53.400;12.486;2023-04-09T06:09:37;20.23;;;14.38;;
13244;SDS011;6689;53.400;12.486;2023-04-09T06:12:04;25.92;;;16.17;;
13244;SDS011;6689;53.400;12.486;2023-04-09T06:14:32;24.95;;;15.32;;
13244;SDS011;6689;53.400;12.486;2023-04-09T06:16:59;24.58;;;15.68;;
13244;SDS011;6689;53.400;12.486;2023-04-09T06:19:29;24.17;;;15.27;;
13244;SDS011;6689;53.400;12.486;2023-04-09T06:21:56;25.40;;;15.35;;
13244;SDS011;6689;53.400;12.486;2023-04-09T06:24:25;28.15;;;17.00;;
13244;SDS011;6689;53.400;12.486;2023-04-09T06:26:55;25.95;;;16.02;;
13244;SDS011;6689;53.400;12.486;2023-04-09T06:29:23;24.52;;;15.38;;
13244;SDS011;6689;53.400;12.486;2023-04-09T06:31:50;26.55;;;16.60;;
13244;SDS011;6689;53.400;12.486;2023-04-09T06:34:17;23.10;;;15.50;;
13244;SDS011;6689;53.400;12.486;2023-04-09T06:36:46;25.75;;;15.43;;
13244;SDS011;6689;53.400;12.486;2023-04-09T06:39:13;21.95;;;13.98;;
13244;SDS011;6689;53.400;12.486;2023-04-09T06:41:41;22.40;;;14.07;;
13244;SDS011;6689;53.400;12.486;2023-04-09T06:44:08;24.67;;;15.00;;
13244;SDS011;6689;53.400;12.486;2023-04-09T06:46:37;22.55;;;14.13;;
13244;SDS011;6689;53.400;12.486;2023-04-09T06:49:06;22.65;;;14.35;;
13244;SDS011;6689;53.400;12.486;2023-04-09T06:51:33;23.77;;;15.15;;
13244;SDS011;6689;53.400;12.486;2023-04-09T06:54:06;30.38;;;15.93;;
13244;SDS011;6689;53.400;12.486;2023-04-09T06:56:34;25.90;;;14.93;;
13244;SDS011;6689;53.400;12.486;2023-04-09T06:59:01;25.75;;;14.48;;
13244;SDS011;6689;53.400;12.486;2023-04-09T07:01:28;28.77;;;17.23;;
13244;SDS011;6689;53.400;12.486;2023-04-09T07:03:56;29.42;;;16.33;;
13244;SDS011;6689;53.400;12.486;2023-04-09T07:06:27;31.65;;;17.55;;
13244;SDS011;6689;53.400;12.486;2023-04-09T07:08:56;30.27;;;17.60;;
13244;SDS011;6689;53.400;12.486;2023-04-09T07:11:25;28.77;;;17.88;;
13244;SDS011;6689;53.400;12.486;2023-04-09T07:13:53;28.27;;;17.52;;
13244;SDS011;6689;53.400;12.486;2023-04-09T07:16:21;30.85;;;15.90;;
13244;SDS011;6689;53.400;12.486;2023-04-09T07:18:54;27.25;;;16.52;;
13244;SDS011;6689;53.400;12.486;2023-04-09T07:21:23;29.70;;;16.35;;
13244;SDS011;6689;53.400;12.486;2023-04-09T07:23:50;26.90;;;15.88;;
13244;SDS011;6689;53.400;12.486;2023-04-09T07:26:18;28.95;;;16.65;;
13244;SDS011;6689;53.400;12.486;2023-04-09T07:28:46;27.73;;;18.10;;
13244;SDS011;6689;53.400;12.486;2023-04-09T07:31:14;26.98;;;17.52;;
13244;SDS011;6689;53.400;12.486;2023-04-09T07:33:41;27.95;;;16.92;;
13244;SDS011;6689;53.400;12.486;2023-04-09T07:36:09;30.08;;;17.60;;
13244;SDS011;6689;53.400;12.486;2023-04-09T07:38:36;26.52;;;17.67;;
13244;SDS011;6689;53.400;12.486;2023-04-09T07:41:06;26.10;;;17.38;;
13244;SDS011;6689;53.400;12.486;2023-04-09T07:43:36;28.92;;;17.17;;
13244;SDS011;6689;53.400;12.486;2023-04-09T07:46:05;25.13;;;16.33;;
13244;SDS011;6689;53.400;12.486;2023-04-09T07:48:33;27.73;;;16.92;;
13244;SDS011;6689;53.400;12.486;2023-04-09T07:51:00;31.08;;;18.42;;
13244;SDS011;6689;53.400;12.486;2023-04-09T07:53:38;33.42;;;17.90;;
13244;SDS011;6689;53.400;12.486;2023-04-09T07:56:05;28.38;;;17.55;;
13244;SDS011;6689;53.400;12.486;2023-04-09T07:58:33;27.90;;;17.88;;
13244;SDS011;6689;53.400;12.486;2023-04-09T08:01:02;27.20;;;16.70;;
13244;SDS011;6689;53.400;12.486;2023-04-09T08:03:30;25.23;;;16.98;;
13244;SDS011;6689;53.400;12.486;2023-04-09T08:05:58;33.53;;;18.80;;
13244;SDS011;6689;53.400;12.486;2023-04-09T08:08:25;25.13;;;16.17;;
13244;SDS011;6689;53.400;12.486;2023-04-09T08:10:56;23.88;;;15.43;;
13244;SDS011;6689;53.400;12.486;2023-04-09T08:13:23;22.05;;;16.38;;
13244;SDS011;6689;53.400;12.486;2023-04-09T08:15:50;23.13;;;16.50;;
13244;SDS011;6689;53.400;12.486;2023-04-09T08:18:17;25.42;;;16.52;;
13244;SDS011;6689;53.400;12.486;2023-04-09T08:20:49;25.42;;;16.38;;
13244;SDS011;6689;53.400;12.486;2023-04-09T08:23:16;25.98;;;17.38;;
13244;SDS011;6689;53.400;12.486;2023-04-09T08:25:43;25.92;;;16.05;;
13244;SDS011;6689;53.400;12.486;2023-04-09T08:28:11;25.73;;;17.02;;
13244;SDS011;6689;53.400;12.486;2023-04-09T08:30:38;30.70;;;17.63;;
13244;SDS011;6689;53.400;12.486;2023-04-09T08:33:05;28.08;;;17.95;;
13244;SDS011;6689;53.400;12.486;2023-04-09T08:35:33;27.55;;;16.38;;
13244;SDS011;6689;53.400;12.486;2023-04-09T08:38:06;21.35;;;14.65;;
13244;SDS011;6689;53.400;12.486;2023-04-09T08:40:33;21.38;;;13.85;;
13244;SDS011;6689;53.400;12.486;2023-04-09T08:43:03;17.75;;;12.80;;
13244;SDS011;6689;53.400;12.486;2023-04-09T08:45:31;17.38;;;12.40;;
13244;SDS011;6689;53.400;12.486;2023-04-09T08:47:58;20.10;;;13.93;;
13244;SDS011;6689;53.400;12.486;2023-04-09T08:50:30;23.08;;;14.18;;
13244;SDS011;6689;53.400;12.486;2023-04-09T08:53:00;20.40;;;14.50;;
13244;SDS011;6689;53.400;12.486;2023-04-09T08:55:30;18.55;;;13.15;;
13244;SDS011;6689;53.400;12.486;2023-04-09T08:57:58;20.95;;;14.50;;
13244;SDS011;6689;53.400;12.486;2023-04-09T09:00:25;21.40;;;15.05;;
13244;SDS011;6689;53.400;12.486;2023-04-09T09:03:02;22.30;;;14.13;;
13244;SDS011;6689;53.400;12.486;2023-04-09T09:05:36;22.05;;;14.20;;
13244;SDS011;6689;53.400;12.486;2023-04-09T09:08:05;20.10;;;13.40;;
13244;SDS011;6689;53.400;12.486;2023-04-09T09:10:39;20.30;;;14.32;;
13244;SDS011;6689;53.400;12.486;2023-04-09T09:13:17;22.20;;;15.30;;
13244;SDS011;6689;53.400;12.486;2023-04-09T09:15:53;20.15;;;14.13;;
13244;SDS011;6689;53.400;12.486;2023-04-09T09:18:21;21.30;;;15.20;;
13244;SDS011;6689;53.400;12.486;2023-04-09T09:21:11;22.80;;;14.68;;
13244;SDS011;6689;53.400;12.486;2023-04-09T09:23:38;20.15;;;14.40;;
13244;SDS011;6689;53.400;12.486;2023-04-09T09:26:14;22.35;;;15.50;;
13244;SDS011;6689;53.400;12.486;2023-04-09T09:28:42;20.73;;;14.50;;
13244;SDS011;6689;53.400;12.486;2023-04-09T09:31:11;19.20;;;15.32;;
13244;SDS011;6689;53.400;12.486;2023-04-09T09:33:38;19.70;;;14.38;;
13244;SDS011;6689;53.400;12.486;2023-04-09T09:36:06;20.13;;;14.80;;
13244;SDS011;6689;53.400;12.486;2023-04-09T09:38:34;23.77;;;18.23;;
13244;SDS011;6689;53.400;12.486;2023-04-09T09:41:19;23.60;;;16.25;;
13244;SDS011;6689;53.400;12.486;2023-04-09T09:43:46;22.95;;;15.85;;
13244;SDS011;6689;53.400;12.486;2023-04-09T09:46:16;21.25;;;15.70;;
13244;SDS011;6689;53.400;12.486;2023-04-09T09:48:44;20.25;;;15.00;;
13244;SDS011;6689;53.400;12.486;2023-04-09T09:51:12;19.35;;;14.55;;
13244;SDS011;6689;53.400;12.486;2023-04-09T09:53:42;20.48;;;15.45;;
13244;SDS011;6689;53.400;12.486;2023-04-09T09:56:13;22.02;;;15.40;;
13244;SDS011;6689;53.400;12.486;2023-04-09T09:58:48;19.63;;;14.38;;
13244;SDS011;6689;53.400;12.486;2023-04-09T10:01:20;20.48;;;14.45;;
13244;SDS011;6689;53.400;12.486;2023-04-09T10:03:52;19.27;;;13.38;;
13244;SDS011;6689;53.400;12.486;2023-04-09T10:06:22;18.80;;;14.25;;
13244;SDS011;6689;53.400;12.486;2023-04-09T10:08:50;19.20;;;14.52;;
13244;SDS011;6689;53.400;12.486;2023-04-09T10:11:19;17.77;;;14.57;;
13244;SDS011;6689;53.400;12.486;2023-04-09T10:13:49;18.95;;;14.90;;
13244;SDS011;6689;53.400;12.486;2023-04-09T10:16:24;21.10;;;15.65;;
13244;SDS011;6689;53.400;12.486;2023-04-09T10:18:52;20.48;;;14.00;;
13244;SDS011;6689;53.400;12.486;2023-04-09T10:21:27;18.45;;;14.77;;
13244;SDS011;6689;53.400;12.486;2023-04-09T10:24:02;20.88;;;14.75;;
13244;SDS011;6689;53.400;12.486;2023-04-09T10:26:32;18.30;;;13.88;;
13244;SDS011;6689;53.400;12.486;2023-04-09T10:29:05;20.75;;;15.02;;
13244;SDS011;6689;53.400;12.486;2023-04-09T10:31:46;18.98;;;14.60;;
13244;SDS011;6689;53.400;12.486;2023-04-09T10:34:17;19.63;;;15.02;;
13244;SDS011;6689;53.400;12.486;2023-04-09T10:36:48;19.85;;;15.82;;
13244;SDS011;6689;53.400;12.486;2023-04-09T10:39:24;19.38;;;14.95;;
13244;SDS011;6689;53.400;12.486;2023-04-09T10:41:54;23.45;;;15.85;;
13244;SDS011;6689;53.400;12.486;2023-04-09T10:44:24;21.63;;;16.48;;
13244;SDS011;6689;53.400;12.486;2023-04-09T10:46:52;24.77;;;17.50;;
13244;SDS011;6689;53.400;12.486;2023-04-09T10:49:20;19.48;;;14.98;;
13244;SDS011;6689;53.400;12.486;2023-04-09T10:51:52;21.40;;;15.50;;
13244;SDS011;6689;53.400;12.486;2023-04-09T10:57:19;21.92;;;16.40;;
13244;SDS011;6689;53.400;12.486;2023-04-09T10:59:50;23.20;;;16.75;;
13244;SDS011;6689;53.400;12.486;2023-04-09T11:05:30;21.55;;;16.52;;
13244;SDS011;6689;53.400;12.486;2023-04-09T11:08:04;23.00;;;16.80;;
13244;SDS011;6689;53.400;12.486;2023-04-09T11:10:33;20.80;;;15.55;;
13244;SDS011;6689;53.400;12.486;2023-04-09T11:13:01;22.40;;;17.10;;
13244;SDS011;6689;53.400;12.486;2023-04-09T11:15:35;22.63;;;16.98;;
13244;SDS011;6689;53.400;12.486;2023-04-09T11:18:04;21.80;;;17.33;;
13244;SDS011;6689;53.400;12.486;2023-04-09T11:20:33;20.95;;;16.52;;
13244;SDS011;6689;53.400;12.486;2023-04-09T11:23:01;25.30;;;18.17;;
13244;SDS011;6689;53.400;12.486;2023-04-09T11:25:29;21.98;;;16.67;;
13244;SDS011;6689;53.400;12.486;2023-04-09T11:27:57;21.98;;;17.25;;
13244;SDS011;6689;53.400;12.486;2023-04-09T11:30:25;20.58;;;15.85;;
13244;SDS011;6689;53.400;12.486;2023-04-09T11:32:55;20.15;;;15.55;;
13244;SDS011;6689;53.400;12.486;2023-04-09T11:35:22;21.13;;;15.82;;
13244;SDS011;6689;53.400;12.486;2023-04-09T11:37:52;24.05;;;17.10;;
13244;SDS011;6689;53.400;12.486;2023-04-09T11:40:21;24.20;;;17.17;;
13244;SDS011;6689;53.400;12.486;2023-04-09T11:42:50;21.63;;;16.27;;
13244;SDS011;6689;53.400;12.486;2023-04-09T11:45:18;20.85;;;15.75;;
13244;SDS011;6689;53.400;12.486;2023-04-09T11:47:47;18.50;;;14.98;;
13244;SDS011;6689;53.400;12.486;2023-04-09T11:50:16;20.85;;;16.00;;
13244;SDS011;6689;53.400;12.486;2023-04-09T11:52:44;20.50;;;15.55;;
13244;SDS011;6689;53.400;12.486;2023-04-09T11:55:21;22.52;;;16.23;;
13244;SDS011;6689;53.400;12.486;2023-04-09T11:57:50;21.00;;;16.10;;
13244;SDS011;6689;53.400;12.486;2023-04-09T12:00:19;21.13;;;15.80;;
13244;SDS011;6689;53.400;12.486;2023-04-09T12:02:50;21.73;;;15.88;;
13244;SDS011;6689;53.400;12.486;2023-04-09T12:05:26;21.58;;;16.80;;
13244;SDS011;6689;53.400;12.486;2023-04-09T12:07:56;21.95;;;16.17;;
13244;SDS011;6689;53.400;12.486;2023-04-09T12:10:26;19.95;;;16.08;;
13244;SDS011;6689;53.400;12.486;2023-04-09T12:12:54;21.20;;;15.73;;
13244;SDS011;6689;53.400;12.486;2023-04-09T12:15:30;24.95;;;16.38;;
13244;SDS011;6689;53.400;12.486;2023-04-09T12:17:58;20.38;;;15.82;;
13244;SDS011;6689;53.400;12.486;2023-04-09T12:20:32;19.98;;;16.10;;
13244;SDS011;6689;53.400;12.486;2023-04-09T12:25:29;20.08;;;16.63;;
13244;SDS011;6689;53.400;12.486;2023-04-09T12:27:59;19.13;;;15.80;;
13244;SDS011;6689;53.400;12.486;2023-04-09T12:30:27;21.65;;;15.35;;
13244;SDS011;6689;53.400;12.486;2023-04-09T12:32:56;18.58;;;16.23;;
13244;SDS011;6689;53.400;12.486;2023-04-09T12:35:23;18.48;;;15.55;;
13244;SDS011;6689;53.400;12.486;2023-04-09T12:37:53;19.67;;;16.00;;
13244;SDS011;6689;53.400;12.486;2023-04-09T12:40:21;19.73;;;15.82;;
13244;SDS011;6689;53.400;12.486;2023-04-09T12:42:48;18.92;;;14.98;;
13244;SDS011;6689;53.400;12.486;2023-04-09T12:45:16;19.67;;;15.93;;
13244;SDS011;6689;53.400;12.486;2023-04-09T12:47:44;19.25;;;15.20;;
13244;SDS011;6689;53.400;12.486;2023-04-09T12:50:12;19.63;;;14.40;;
13244;SDS011;6689;53.400;12.486;2023-04-09T12:52:40;19.42;;;15.75;;
13244;SDS011;6689;53.400;12.486;2023-04-09T12:55:10;18.98;;;15.48;;
13244;SDS011;6689;53.400;12.486;2023-04-09T12:57:38;17.48;;;14.82;;
13244;SDS011;6689;53.400;12.486;2023-04-09T13:00:10;19.48;;;15.32;;
13244;SDS011;6689;53.400;12.486;2023-04-09T13:02:38;19.67;;;15.95;;
13244;SDS011;6689;53.400;12.486;2023-04-09T13:05:05;17.50;;;14.35;;
13244;SDS011;6689;53.400;12.486;2023-04-09T13:07:35;17.50;;;15.52;;
13244;SDS011;6689;53.400;12.486;2023-04-09T13:10:02;18.70;;;15.02;;
13244;SDS011;6689;53.400;12.486;2023-04-09T13:12:31;18.15;;;14.25;;
13244;SDS011;6689;53.400;12.486;2023-04-09T13:14:59;17.70;;;14.25;;
13244;SDS011;6689;53.400;12.486;2023-04-09T13:17:26;18.83;;;15.38;;
13244;SDS011;6689;53.400;12.486;2023-04-09T13:19:53;18.90;;;15.00;;
13244;SDS011;6689;53.400;12.486;2023-04-09T13:22:22;17.98;;;14.68;;
13244;SDS011;6689;53.400;12.486;2023-04-09T13:24:50;18.92;;;14.68;;
13244;SDS011;6689;53.400;12.486;2023-04-09T13:27:20;18.23;;;14.57;;
13244;SDS011;6689;53.400;12.486;2023-04-09T13:29:49;19.70;;;14.05;;
13244;SDS011;6689;53.400;12.486;2023-04-09T13:32:16;20.20;;;15.57;;
13244;SDS011;6689;53.400;12.486;2023-04-09T13:34:47;19.60;;;15.05;;
13244;SDS011;6689;53.400;12.486;2023-04-09T13:37:17;17.98;;;15.02;;
13244;SDS011;6689;53.400;12.486;2023-04-09T13:39:45;18.55;;;14.75;;
13244;SDS011;6689;53.400;12.486;2023-04-09T13:42:12;18.02;;;14.95;;
13244;SDS011;6689;53.400;12.486;2023-04-09T13:44:40;21.88;;;14.98;;
13244;SDS011;6689;53.400;12.486;2023-04-09T13:47:10;21.13;;;14.88;;
13244;SDS011;6689;53.400;12.486;2023-04-09T13:49:38;19.08;;;16.33;;
13244;SDS011;6689;53.400;12.486;2023-04-09T13:52:08;17.67;;;15.35;;
13244;SDS011;6689;53.400;12.486;2023-04-09T13:54:36;19.85;;;15.50;;
13244;SDS011;6689;53.400;12.486;2023-04-09T13:57:03;22.95;;;15.20;;
13244;SDS011;6689;53.400;12.486;2023-04-09T13:59:33;20.88;;;16.42;;
13244;SDS011;6689;53.400;12.486;2023-04-09T14:02:02;20.83;;;15.00;;
13244;SDS011;6689;53.400;12.486;2023-04-09T14:04:31;21.13;;;14.80;;
13244;SDS011;6689;53.400;12.486;2023-04-09T14:06:59;23.30;;;16.00;;
13244;SDS011;6689;53.400;12.486;2023-04-09T14:09:27;21.30;;;15.50;;
13244;SDS011;6689;53.400;12.486;2023-04-09T14:11:55;21.98;;;15.27;;
13244;SDS011;6689;53.400;12.486;2023-04-09T14:14:23;20.95;;;15.88;;
13244;SDS011;6689;53.400;12.486;2023-04-09T14:16:50;19.10;;;14.98;;
13244;SDS011;6689;53.400;12.486;2023-04-09T14:19:17;21.38;;;15.57;;
13244;SDS011;6689;53.400;12.486;2023-04-09T14:21:46;20.42;;;15.30;;
13244;SDS011;6689;53.400;12.486;2023-04-09T14:24:13;21.80;;;15.48;;
13244;SDS011;6689;53.400;12.486;2023-04-09T14:26:40;22.30;;;16.13;;
13244;SDS011;6689;53.400;12.486;2023-04-09T14:29:07;22.33;;;16.15;;
13244;SDS011;6689;53.400;12.486;2023-04-09T14:31:35;25.92;;;16.88;;
13244;SDS011;6689;53.400;12.486;2023-04-09T14:34:02;21.95;;;15.48;;
13244;SDS011;6689;53.400;12.486;2023-04-09T14:36:29;22.67;;;16.80;;
13244;SDS011;6689;53.400;12.486;2023-04-09T14:38:58;25.38;;;17.13;;
13244;SDS011;6689;53.400;12.486;2023-04-09T14:41:25;19.23;;;16.55;;